createdAt,value
2023-02-19T00:01:33.712Z,93.74
2023-02-19T00:04:24.890Z,93.58
2023-02-19T00:07:16.015Z,94.02
2023-02-19T00:10:07.507Z,94.22
2023-02-19T00:12:58.869Z,94.23
2023-02-19T00:15:51.964Z,93.75
2023-02-19T00:18:43.357Z,93.11
2023-02-19T00:21:35.548Z,92.80
2023-02-19T00:24:27.017Z,92.44
2023-02-19T00:27:18.162Z,92.52
2023-02-19T00:30:10.169Z,92.23
2023-02-19T00:32:53.944Z,92.45
2023-02-19T00:35:43.697Z,92.78
2023-02-19T00:38:37.522Z,92.50
2023-02-19T00:41:29.149Z,92.41
2023-02-19T00:44:13.301Z,92.58
2023-02-19T00:47:06.873Z,92.48
2023-02-19T00:49:57.913Z,92.54
2023-02-19T00:52:49.985Z,92.63
2023-02-19T00:55:40.958Z,92.59
2023-02-19T00:58:32.005Z,92.15
2023-02-19T01:01:23.389Z,92.13
2023-02-19T01:04:16.521Z,92.00
2023-02-19T01:07:10.031Z,91.85
2023-02-19T01:09:59.630Z,91.83
2023-02-19T01:12:49.071Z,91.83
2023-02-19T01:15:38.547Z,92.00
2023-02-19T01:18:31.748Z,91.69
2023-02-19T01:21:23.572Z,91.60
2023-02-19T01:24:16.807Z,91.41
2023-02-19T01:27:07.913Z,91.52
2023-02-19T01:30:00.539Z,91.66
2023-02-19T01:32:51.731Z,91.71
2023-02-19T01:35:42.742Z,91.74
2023-02-19T01:38:33.903Z,92.22
2023-02-19T01:41:26.395Z,92.59
2023-02-19T01:44:29.959Z,92.74
2023-02-19T01:47:22.236Z,92.83
2023-02-19T01:50:13.378Z,93.17
2023-02-19T01:52:56.992Z,93.60
2023-02-19T01:55:49.652Z,93.47
2023-02-19T01:58:41.209Z,93.45
2023-02-19T02:01:32.401Z,93.67
2023-02-19T02:04:16.936Z,93.70
2023-02-19T02:07:29.985Z,93.62
2023-02-19T02:10:24.117Z,93.78
2023-02-19T02:13:06.379Z,93.85
2023-02-19T02:16:00.960Z,93.76
2023-02-19T02:18:54.624Z,93.99
2023-02-19T02:21:50.812Z,94.28
2023-02-19T02:25:04.503Z,94.76
2023-02-19T02:28:00.954Z,95.36
2023-02-19T02:30:53.798Z,95.43
2023-02-19T02:33:51.050Z,95.46
2023-02-19T02:36:44.685Z,95.48
2023-02-19T02:39:37.789Z,95.23
2023-02-19T02:42:29.312Z,95.23
2023-02-19T02:45:36.898Z,95.11
2023-02-19T02:48:31.837Z,94.89
2023-02-19T02:51:26.245Z,94.85
2023-02-19T02:54:53.568Z,94.92
2023-02-19T02:57:44.635Z,94.68
2023-02-19T03:00:53.100Z,94.35
2023-02-19T03:03:45.472Z,94.41
2023-02-19T03:06:38.337Z,94.49
2023-02-19T03:09:32.218Z,94.48
2023-02-19T03:12:41.245Z,94.40
2023-02-19T03:15:53.510Z,94.43
2023-02-19T03:19:05.336Z,94.06
2023-02-19T03:21:59.562Z,94.17
2023-02-19T03:25:11.600Z,94.00
2023-02-19T03:28:04.381Z,94.13
2023-02-19T03:30:57.072Z,94.19
2023-02-19T03:33:51.793Z,94.23
2023-02-19T03:36:45.808Z,94.26
2023-02-19T03:39:44.561Z,94.23
2023-02-19T03:42:42.516Z,93.83
2023-02-19T03:45:39.458Z,93.92
2023-02-19T03:48:35.153Z,94.03
2023-02-19T03:51:34.092Z,94.09
2023-02-19T03:54:20.893Z,94.02
2023-02-19T03:57:02.222Z,93.96
2023-02-19T03:59:57.040Z,93.86
2023-02-19T04:02:50.497Z,93.73
2023-02-19T04:05:46.378Z,93.78
2023-02-19T04:08:38.650Z,93.77
2023-02-19T04:11:32.328Z,93.95
2023-02-19T04:14:22.368Z,93.93
2023-02-19T04:17:19.667Z,93.64
2023-02-19T04:20:12.333Z,93.87
2023-02-19T04:23:04.004Z,93.86
2023-02-19T04:25:49.189Z,93.78
2023-02-19T04:28:43.269Z,93.48
2023-02-19T04:31:36.784Z,93.33
2023-02-19T04:34:28.062Z,93.47
2023-02-19T04:37:19.118Z,93.18
2023-02-19T04:40:01.148Z,93.16
2023-02-19T04:42:52.404Z,93.28
2023-02-19T04:45:43.612Z,93.34
2023-02-19T04:48:34.682Z,93.22
2023-02-19T04:51:25.915Z,93.18
2023-02-19T04:54:17.264Z,93.22
2023-02-19T04:57:08.268Z,93.12
2023-02-19T04:59:59.704Z,92.98
2023-02-19T05:02:51.357Z,92.69
2023-02-19T05:05:36.413Z,92.49
2023-02-19T05:08:27.576Z,92.24
2023-02-19T05:11:19.273Z,92.17
2023-02-19T05:14:10.617Z,92.12
2023-02-19T05:17:01.785Z,92.00
2023-02-19T05:19:53.006Z,92.15
2023-02-19T05:22:44.888Z,92.35
2023-02-19T05:25:36.216Z,92.28
2023-02-19T05:28:29.920Z,92.24
2023-02-19T05:31:21.603Z,92.31
2023-02-19T05:34:14.669Z,92.37
2023-02-19T05:37:05.938Z,92.17
2023-02-19T05:39:59.081Z,92.20
2023-02-19T05:42:50.416Z,92.28
2023-02-19T05:45:43.442Z,92.25
2023-02-19T05:48:34.109Z,92.34
2023-02-19T05:51:26.418Z,92.40
2023-02-19T05:54:17.700Z,92.16
2023-02-19T05:57:08.718Z,92.33
2023-02-19T05:59:59.941Z,92.55
2023-02-19T06:02:51.193Z,92.58
2023-02-19T06:05:42.357Z,92.75
2023-02-19T06:08:33.838Z,92.96
2023-02-19T06:11:26.323Z,92.90
2023-02-19T06:14:17.621Z,93.21
2023-02-19T06:17:09.449Z,93.43
2023-02-19T06:20:00.565Z,93.32
2023-02-19T06:22:53.349Z,93.27
2023-02-19T06:25:44.549Z,93.25
2023-02-19T06:28:38.193Z,93.08
2023-02-19T06:31:29.713Z,93.12
2023-02-19T06:34:22.217Z,92.54
2023-02-19T06:36:57.921Z,92.58
2023-02-19T06:39:49.325Z,92.64
2023-02-19T06:42:41.950Z,92.45
2023-02-19T06:45:33.084Z,92.51
2023-02-19T06:48:24.853Z,92.47
2023-02-19T06:51:18.877Z,92.40
2023-02-19T06:54:11.738Z,92.55
2023-02-19T06:57:03.591Z,92.74
2023-02-19T06:59:55.101Z,92.88
2023-02-19T07:02:47.656Z,93.02
2023-02-19T07:05:39.322Z,92.79
2023-02-19T07:08:30.919Z,93.01
2023-02-19T07:11:22.301Z,93.15
2023-02-19T07:14:15.872Z,93.10
2023-02-19T07:17:07.009Z,92.73
2023-02-19T07:19:58.278Z,92.61
2023-02-19T07:22:49.511Z,93.02
2023-02-19T07:25:41.236Z,93.41
2023-02-19T07:28:32.282Z,92.87
2023-02-19T07:31:16.609Z,92.54
2023-02-19T07:34:08.135Z,92.54
2023-02-19T07:37:01.117Z,92.87
2023-02-19T07:39:52.564Z,93.38
2023-02-19T07:42:44.895Z,93.00
2023-02-19T07:45:36.527Z,92.93
2023-02-19T07:48:27.897Z,93.35
2023-02-19T07:51:20.906Z,93.48
2023-02-19T07:54:12.816Z,93.22
2023-02-19T07:57:03.949Z,93.03
2023-02-19T07:59:55.346Z,92.86
2023-02-19T08:03:00.261Z,92.95
2023-02-19T08:05:53.896Z,93.09
2023-02-19T08:08:45.495Z,93.24
2023-02-19T08:11:57.685Z,92.97
2023-02-19T08:14:48.876Z,93.25
2023-02-19T08:17:41.238Z,93.04
2023-02-19T08:20:32.294Z,92.58
2023-02-19T08:23:23.639Z,92.67
2023-02-19T08:26:15.153Z,92.84
2023-02-19T08:29:06.568Z,93.20
2023-02-19T08:31:57.719Z,93.58
2023-02-19T08:34:49.021Z,93.38
2023-02-19T08:37:40.073Z,93.28
2023-02-19T08:40:31.163Z,93.20
2023-02-19T08:43:23.351Z,93.13
2023-02-19T08:46:14.440Z,92.91
2023-02-19T08:49:07.145Z,92.91
2023-02-19T08:51:58.164Z,93.19
2023-02-19T08:54:49.659Z,93.04
2023-02-19T08:57:41.011Z,93.17
2023-02-19T09:00:36.293Z,93.11
2023-02-19T09:03:27.352Z,93.04
2023-02-19T09:06:14.508Z,92.63
2023-02-19T09:09:06.167Z,92.71
2023-02-19T09:11:57.348Z,92.62
2023-02-19T09:14:48.527Z,92.31
2023-02-19T09:17:39.701Z,92.70
2023-02-19T09:20:30.805Z,92.90
2023-02-19T09:23:23.936Z,92.56
2023-02-19T09:26:15.390Z,91.87
2023-02-19T09:29:06.409Z,91.66
2023-02-19T09:31:59.298Z,91.50
2023-02-19T09:34:50.928Z,91.33
2023-02-19T09:37:42.149Z,91.07
2023-02-19T09:40:33.320Z,91.15
2023-02-19T09:43:29.279Z,91.24
2023-02-19T09:46:28.375Z,90.58
2023-02-19T09:49:21.311Z,90.63
2023-02-19T09:52:16.213Z,90.79
2023-02-19T09:55:27.480Z,90.15
2023-02-19T09:58:24.755Z,90.07
2023-02-19T10:01:14.650Z,90.07
2023-02-19T10:04:06.019Z,89.82
2023-02-19T10:07:02.285Z,89.24
2023-02-19T10:09:56.204Z,89.90
2023-02-19T10:12:51.268Z,89.65
2023-02-19T10:15:42.655Z,89.60
2023-02-19T10:18:39.194Z,89.69
2023-02-19T10:21:30.215Z,88.90
2023-02-19T10:24:25.867Z,89.66
2023-02-19T10:27:17.344Z,89.78
2023-02-19T10:30:31.078Z,89.36
2023-02-19T10:33:22.689Z,88.81
2023-02-19T10:36:34.561Z,87.68
2023-02-19T10:39:35.340Z,87.04
2023-02-19T10:42:26.503Z,86.43
2023-02-19T10:45:21.182Z,86.98
2023-02-19T10:48:24.811Z,86.84
2023-02-19T10:51:36.462Z,86.74
2023-02-19T10:54:29.939Z,86.34
2023-02-19T10:57:33.451Z,87.02
2023-02-19T11:00:27.041Z,87.17
2023-02-19T11:03:22.338Z,87.42
2023-02-19T11:06:13.287Z,87.13
2023-02-19T11:09:04.634Z,87.31
2023-02-19T11:11:55.403Z,87.83
2023-02-19T11:14:47.317Z,88.23
2023-02-19T11:17:38.428Z,88.34
2023-02-19T11:20:22.602Z,88.83
2023-02-19T11:23:16.284Z,89.09
2023-02-19T11:26:08.570Z,88.35
2023-02-19T11:29:00.880Z,87.35
2023-02-19T11:31:52.411Z,87.32
2023-02-19T11:34:45.121Z,87.86
2023-02-19T11:37:36.454Z,88.08
2023-02-19T11:40:21.819Z,87.95
2023-02-19T11:43:08.430Z,88.10
2023-02-19T11:45:55.118Z,88.54
2023-02-19T11:48:55.078Z,88.88
2023-02-19T11:51:54.714Z,89.10
2023-02-19T11:54:52.737Z,88.55
2023-02-19T11:57:47.463Z,89.24
2023-02-19T12:00:43.984Z,89.68
2023-02-19T12:03:44.945Z,90.14
2023-02-19T12:06:41.396Z,90.22
2023-02-19T12:09:39.894Z,90.11
2023-02-19T12:12:48.106Z,89.87
2023-02-19T12:15:48.013Z,90.10
2023-02-19T12:18:56.012Z,90.41
2023-02-19T12:21:56.194Z,90.42
2023-02-19T12:25:06.793Z,90.00
2023-02-19T12:28:19.480Z,90.23
2023-02-19T12:31:19.535Z,90.04
2023-02-19T12:34:17.591Z,90.03
2023-02-19T12:37:17.210Z,90.49
2023-02-19T12:40:18.893Z,90.26
2023-02-19T12:43:15.411Z,90.18
2023-02-19T12:46:09.252Z,89.82
2023-02-19T12:48:56.652Z,90.46
2023-02-19T12:51:49.796Z,90.67
2023-02-19T12:54:43.436Z,90.23
2023-02-19T12:57:36.727Z,89.86
2023-02-19T13:00:32.624Z,90.00
2023-02-19T13:03:21.284Z,90.36
2023-02-19T13:06:18.021Z,90.43
2023-02-19T13:09:13.299Z,90.11
2023-02-19T13:12:10.733Z,88.89
2023-02-19T13:15:02.535Z,87.86
2023-02-19T13:17:56.804Z,87.51
2023-02-19T13:20:49.189Z,87.37
2023-02-19T13:23:49.909Z,87.81
2023-02-19T13:27:02.094Z,87.80
2023-02-19T13:30:03.921Z,87.73
2023-02-19T13:33:20.544Z,87.42
2023-02-19T13:36:18.026Z,87.10
2023-02-19T13:39:09.407Z,86.22
2023-02-19T13:42:00.743Z,85.44
2023-02-19T13:44:57.785Z,86.15
2023-02-19T13:48:10.922Z,86.82
2023-02-19T13:51:21.586Z,87.17
2023-02-19T13:54:26.981Z,87.48
2023-02-19T13:57:30.332Z,88.05
2023-02-19T14:00:51.560Z,88.50
2023-02-19T14:03:46.730Z,88.73
2023-02-19T14:07:02.748Z,88.94
2023-02-19T14:09:53.869Z,89.16
2023-02-19T14:12:46.476Z,89.22
2023-02-19T14:15:45.249Z,89.47
2023-02-19T14:18:46.857Z,89.73
2023-02-19T14:21:37.954Z,89.94
2023-02-19T14:24:29.588Z,89.85
2023-02-19T14:27:20.958Z,89.99
2023-02-19T14:30:13.232Z,89.82
2023-02-19T14:33:10.941Z,90.08
2023-02-19T14:36:05.875Z,89.68
2023-02-19T14:38:58.510Z,89.93
2023-02-19T14:41:52.281Z,90.00
2023-02-19T14:44:48.848Z,90.39
2023-02-19T14:47:43.809Z,90.34
2023-02-19T14:50:36.511Z,90.24
2023-02-19T14:53:29.259Z,90.63
2023-02-19T14:56:22.661Z,90.82
2023-02-19T14:59:26.787Z,90.85
2023-02-19T15:02:20.837Z,91.04
2023-02-19T15:05:17.738Z,91.11
2023-02-19T15:08:13.376Z,91.24
2023-02-19T15:11:05.703Z,91.27
2023-02-19T15:13:51.040Z,91.28
2023-02-19T15:16:36.572Z,91.34
2023-02-19T15:19:29.644Z,91.45
2023-02-19T15:22:22.354Z,91.67
2023-02-19T15:25:17.184Z,91.86
2023-02-19T15:28:19.586Z,91.91
2023-02-19T15:31:07.943Z,92.74
2023-02-19T15:33:59.323Z,93.33
2023-02-19T15:36:51.264Z,94.20
2023-02-19T15:39:44.839Z,94.47
2023-02-19T15:42:37.239Z,95.09
2023-02-19T15:45:30.624Z,95.34
2023-02-19T15:48:25.319Z,95.38
2023-02-19T15:51:17.856Z,95.56
2023-02-19T15:54:04.525Z,95.18
2023-02-19T15:56:57.542Z,93.62
2023-02-19T15:59:51.537Z,93.96
2023-02-19T16:02:42.759Z,94.54
2023-02-19T16:05:39.976Z,94.70
2023-02-19T16:08:23.743Z,95.09
2023-02-19T16:11:29.041Z,95.33
2023-02-19T16:14:24.072Z,95.13
2023-02-19T16:17:18.891Z,95.04
2023-02-19T16:20:18.309Z,94.58
2023-02-19T16:23:14.374Z,94.07
2023-02-19T16:26:05.890Z,93.72
2023-02-19T16:28:56.857Z,93.90
2023-02-19T16:31:50.878Z,93.93
2023-02-19T16:34:43.577Z,93.62
2023-02-19T16:37:36.555Z,92.72
2023-02-19T16:40:52.464Z,91.50
2023-02-19T16:43:46.308Z,91.06
2023-02-19T16:46:40.961Z,91.12
2023-02-19T16:50:52.456Z,90.89
2023-02-19T16:52:55.335Z,91.17
2023-02-19T16:55:37.552Z,91.45
2023-02-19T16:58:28.726Z,91.68
2023-02-19T17:01:20.208Z,91.86
2023-02-19T17:04:12.778Z,91.65
2023-02-19T17:07:04.209Z,91.22
2023-02-19T17:09:56.306Z,91.32
2023-02-19T17:12:48.529Z,91.27
2023-02-19T17:15:32.469Z,91.10
2023-02-19T17:18:23.865Z,91.30
2023-02-19T17:21:18.250Z,91.41
2023-02-19T17:24:09.520Z,91.48
2023-02-19T17:26:59.027Z,91.38
2023-02-19T17:29:50.141Z,91.75
2023-02-19T17:32:41.663Z,91.76
2023-02-19T17:35:32.780Z,91.84
2023-02-19T17:38:24.025Z,91.51
2023-02-19T17:41:15.170Z,91.24
2023-02-19T17:44:08.894Z,91.34
2023-02-19T17:46:52.698Z,91.45
2023-02-19T17:49:44.350Z,91.75
2023-02-19T17:52:29.423Z,91.76
2023-02-19T17:55:20.561Z,91.43
2023-02-19T17:58:12.578Z,91.57
2023-02-19T18:01:06.332Z,91.82
2023-02-19T18:03:57.506Z,91.92
2023-02-19T18:06:49.172Z,91.73
2023-02-19T18:09:41.134Z,91.85
2023-02-19T18:12:32.328Z,91.46
2023-02-19T18:15:26.289Z,91.44
2023-02-19T18:18:12.451Z,91.39
2023-02-19T18:21:03.645Z,91.19
2023-02-19T18:23:54.807Z,90.94
2023-02-19T18:26:48.068Z,90.74
2023-02-19T18:29:39.216Z,90.32
2023-02-19T18:32:31.839Z,90.25
2023-02-19T18:35:23.399Z,89.95
2023-02-19T18:38:14.423Z,89.83
2023-02-19T18:41:06.631Z,89.75
2023-02-19T18:43:59.626Z,89.57
2023-02-19T18:46:52.476Z,89.65
2023-02-19T18:49:36.397Z,89.59
2023-02-19T18:52:27.464Z,89.56
2023-02-19T18:55:18.663Z,89.78
2023-02-19T18:57:59.787Z,89.88
2023-02-19T19:00:50.867Z,89.74
2023-02-19T19:03:41.942Z,89.88
2023-02-19T19:06:33.374Z,90.26
2023-02-19T19:09:14.376Z,90.23
2023-02-19T19:11:57.007Z,90.61
2023-02-19T19:14:40.782Z,90.65
2023-02-19T19:17:31.825Z,90.62
2023-02-19T19:20:23.878Z,90.67
2023-02-19T19:23:14.894Z,90.62
2023-02-19T19:26:08.207Z,90.39
2023-02-19T19:28:59.282Z,89.46
2023-02-19T19:31:51.792Z,89.41
2023-02-19T19:34:43.813Z,89.66
2023-02-19T19:37:35.046Z,89.24
2023-02-19T19:40:26.148Z,88.72
2023-02-19T19:43:16.904Z,88.53
2023-02-19T19:46:08.822Z,88.03
2023-02-19T19:49:00.277Z,87.53
2023-02-19T19:51:51.737Z,87.24
2023-02-19T19:54:43.759Z,87.01
2023-02-19T19:57:35.262Z,87.23
2023-02-19T20:00:26.619Z,87.01
2023-02-19T20:03:18.692Z,86.93
2023-02-19T20:06:09.833Z,87.19
2023-02-19T20:09:01.964Z,86.69
2023-02-19T20:11:54.546Z,86.59
2023-02-19T20:14:48.276Z,86.46
2023-02-19T20:17:40.543Z,86.28
2023-02-19T20:20:31.806Z,86.62
2023-02-19T20:23:22.905Z,86.85
2023-02-19T20:26:05.558Z,86.57
2023-02-19T20:28:57.207Z,86.31
2023-02-19T20:31:51.393Z,86.79
2023-02-19T20:34:41.134Z,86.80
2023-02-19T20:37:32.309Z,86.36
2023-02-19T20:40:27.488Z,86.46
2023-02-19T20:43:19.632Z,86.23
2023-02-19T20:46:12.097Z,86.23
2023-02-19T20:49:03.394Z,85.80
2023-02-19T20:51:56.224Z,85.24
2023-02-19T20:54:47.315Z,85.36
2023-02-19T20:57:38.742Z,85.03
2023-02-19T21:00:30.053Z,85.09
2023-02-19T21:03:21.196Z,84.79
2023-02-19T21:06:12.648Z,83.92
2023-02-19T21:09:05.794Z,84.06
2023-02-19T21:11:58.546Z,84.46
2023-02-19T21:14:49.886Z,84.64
2023-02-19T21:17:41.071Z,84.06
2023-02-19T21:20:32.248Z,84.56
2023-02-19T21:23:24.408Z,84.63
2023-02-19T21:26:15.560Z,84.25
2023-02-19T21:29:07.070Z,84.14
2023-02-19T21:31:59.194Z,84.08
2023-02-19T21:34:50.304Z,84.51
2023-02-19T21:37:26.943Z,84.52
2023-02-19T21:40:18.097Z,84.61
2023-02-19T21:43:09.975Z,84.77
2023-02-19T21:46:01.081Z,85.03
2023-02-19T21:48:52.502Z,85.21
2023-02-19T21:51:44.551Z,85.34
2023-02-19T21:54:37.286Z,85.77
2023-02-19T21:57:29.323Z,85.74
2023-02-19T22:00:22.200Z,85.65
2023-02-19T22:03:16.170Z,86.08
2023-02-19T22:06:08.139Z,86.11
2023-02-19T22:08:58.093Z,86.20
2023-02-19T22:11:49.594Z,86.44
2023-02-19T22:14:41.782Z,86.55
2023-02-19T22:17:32.940Z,86.34
2023-02-19T22:20:24.139Z,86.38
2023-02-19T22:23:15.760Z,86.60
2023-02-19T22:26:06.991Z,86.61
2023-02-19T22:28:51.425Z,86.77
2023-02-19T22:31:42.798Z,86.43
2023-02-19T22:34:33.994Z,86.36
2023-02-19T22:37:25.061Z,86.26
2023-02-19T22:40:16.410Z,86.05
2023-02-19T22:43:07.495Z,85.71
2023-02-19T22:45:58.574Z,85.87
2023-02-19T22:48:49.781Z,85.75
2023-02-19T22:51:41.082Z,85.68
2023-02-19T22:54:32.200Z,85.80
2023-02-19T22:57:23.435Z,86.23
2023-02-19T23:00:20.963Z,86.29
2023-02-19T23:03:12.018Z,86.45
2023-02-19T23:06:05.420Z,86.45
2023-02-19T23:08:58.329Z,86.58
2023-02-19T23:11:49.553Z,86.57
2023-02-19T23:14:40.592Z,86.70
2023-02-19T23:17:31.725Z,86.83
2023-02-19T23:20:22.896Z,87.06
2023-02-19T23:23:14.044Z,86.72
2023-02-19T23:26:05.558Z,86.79
2023-02-19T23:28:56.988Z,86.72
2023-02-19T23:31:48.461Z,86.58
2023-02-19T23:34:39.609Z,86.87
2023-02-19T23:37:30.815Z,86.98
2023-02-19T23:40:15.651Z,86.83
2023-02-19T23:43:06.668Z,86.88
2023-02-19T23:45:57.856Z,86.87
2023-02-19T23:48:49.111Z,86.80
2023-02-19T23:51:41.364Z,86.88
2023-02-19T23:54:32.639Z,86.89
2023-02-19T23:57:24.056Z,86.90
